Time;durP1;ratioP1;P1;durP2;ratioP2;P2;SDS_P1;SDS_P2;PMS_P1;PMS_P2;Temp;Humidity;BMP_temperature;BMP_pressure;BME280_temperature;BME280_humidity;BME280_pressure;Samples;Min_cycle;Max_cycle;Signal;HPM_P1;HPM_P2
2022/03/20 00:01:47;;;;;;;46.65;25.95;;;1.70;1.00;;;;;;4948149;29;20062;-80
2022/03/20 00:04:36;;;;;;;41.75;26.30;;;1.70;1.00;;;;;;4952322;29;20043;-81
2022/03/20 00:07:24;;;;;;;42.55;26.73;;;1.70;1.00;;;;;;4953532;28;20050;-81
2022/03/20 00:10:15;;;;;;;44.00;27.10;;;1.60;1.00;;;;;;4949426;29;20047;-81
2022/03/20 00:13:12;;;;;;;41.35;26.08;;;1.60;99.90;;;;;;4945963;29;20062;-80
2022/03/20 00:15:59;;;;;;;40.58;25.55;;;1.50;1.00;;;;;;4952066;29;20460;-81
2022/03/20 00:18:47;;;;;;;42.55;25.90;;;1.50;99.90;;;;;;4940281;28;20134;-80
2022/03/20 00:21:36;;;;;;;44.55;26.25;;;1.50;99.90;;;;;;4953630;29;20051;-81
2022/03/20 00:24:24;;;;;;;43.00;25.98;;;1.50;99.90;;;;;;4951767;29;20051;-81
2022/03/20 00:27:12;;;;;;;43.80;26.27;;;1.50;99.90;;;;;;4958811;28;20059;-81
2022/03/20 00:30:02;;;;;;;44.15;25.10;;;1.60;99.90;;;;;;4950035;29;20138;-79
2022/03/20 00:32:51;;;;;;;40.15;23.95;;;1.50;93.20;;;;;;4951775;29;20079;-80
2022/03/20 00:35:41;;;;;;;40.38;24.83;;;1.50;1.00;;;;;;4952650;29;20114;-79
2022/03/20 00:38:29;;;;;;;42.13;25.35;;;1.50;95.50;;;;;;4941601;28;20461;-81
2022/03/20 00:41:16;;;;;;;43.30;24.83;;;1.40;99.90;;;;;;4953057;29;20091;-80
2022/03/20 00:44:04;;;;;;;45.22;25.92;;;1.40;99.90;;;;;;4951572;29;20430;-80
2022/03/20 00:46:51;;;;;;;38.92;24.98;;;1.30;99.90;;;;;;4951610;28;20079;-80
2022/03/20 00:49:39;;;;;;;39.95;24.88;;;1.30;99.90;;;;;;4954344;28;20202;-80
2022/03/20 00:52:26;;;;;;;42.53;24.95;;;1.30;99.90;;;;;;4953307;29;20490;-80
2022/03/20 00:55:14;;;;;;;50.88;27.92;;;1.30;1.00;;;;;;4950124;29;20043;-80
2022/03/20 00:58:01;;;;;;;47.42;28.08;;;1.40;18.00;;;;;;4951641;29;20142;-82
2022/03/20 01:00:50;;;;;;;44.63;27.63;;;1.40;99.90;;;;;;4953288;29;20465;-80
2022/03/20 01:03:40;;;;;;;43.42;28.27;;;1.40;1.00;;;;;;4955944;29;20043;-80
2022/03/20 01:06:27;;;;;;;51.58;27.13;;;1.30;99.90;;;;;;4950308;29;20043;-80
2022/03/20 01:09:14;;;;;;;47.30;24.55;;;1.30;99.90;;;;;;4956736;29;20082;-79
2022/03/20 01:12:09;;;;;;;40.83;25.60;;;1.30;42.10;;;;;;4954830;29;20472;-79
2022/03/20 01:14:56;;;;;;;43.22;26.15;;;1.30;99.90;;;;;;4942495;29;20063;-82
2022/03/20 01:17:45;;;;;;;41.42;25.17;;;1.20;1.00;;;;;;4956254;29;20101;-79
2022/03/20 01:20:32;;;;;;;45.08;26.65;;;1.30;1.00;;;;;;4953291;29;20353;-82
2022/03/20 01:23:21;;;;;;;43.72;27.55;;;1.30;1.00;;;;;;4933767;29;20051;-81
2022/03/20 01:26:11;;;;;;;53.92;31.20;;;1.40;99.90;;;;;;4955339;29;20079;-82
2022/03/20 01:29:00;;;;;;;58.72;33.63;;;1.30;99.90;;;;;;4955190;29;20098;-80
2022/03/20 01:31:48;;;;;;;56.22;31.30;;;1.30;1.00;;;;;;4955936;29;20428;-81
2022/03/20 01:34:38;;;;;;;56.75;32.72;;;1.30;99.90;;;;;;4956873;29;20055;-80
2022/03/20 01:37:26;;;;;;;50.47;28.40;;;1.40;99.90;;;;;;4942042;29;20050;-80
2022/03/20 01:40:14;;;;;;;44.85;25.75;;;1.40;12.80;;;;;;4950434;29;20054;-81
2022/03/20 01:43:02;;;;;;;42.30;24.40;;;1.50;99.90;;;;;;4942940;29;20110;-80
2022/03/20 01:45:49;;;;;;;43.60;23.73;;;1.50;99.90;;;;;;4954155;28;20111;-80
2022/03/20 01:48:36;;;;;;;38.75;24.05;;;1.50;99.90;;;;;;4952069;29;20047;-81
2022/03/20 01:54:33;;;;;;;45.60;27.13;;;1.30;1.00;;;;;;4943677;29;20066;-81
2022/03/20 01:57:22;;;;;;;55.38;31.27;;;1.20;99.90;;;;;;4947564;29;20047;-79
2022/03/20 02:00:12;;;;;;;52.95;31.58;;;1.20;99.90;;;;;;4953487;28;20070;-81
2022/03/20 02:02:59;;;;;;;57.13;32.33;;;1.10;5.50;;;;;;4955179;29;20051;-80
2022/03/20 02:05:50;;;;;;;51.85;31.95;;;1.10;99.90;;;;;;4950921;29;20081;-80
2022/03/20 02:08:40;;;;;;;53.92;32.03;;;1.10;99.90;;;;;;4955284;29;20126;-80
2022/03/20 02:11:32;;;;;;;50.42;29.42;;;1.10;99.90;;;;;;4930417;29;20065;-82
2022/03/20 02:14:20;;;;;;;;;;;1.00;99.90;;;;;;4956071;29;20051;-79
2022/03/20 02:17:10;;;;;;;53.38;30.25;;;1.00;99.90;;;;;;4956594;28;20635;-80
2022/03/20 02:19:58;;;;;;;53.30;30.88;;;1.00;1.00;;;;;;4947228;29;20066;-79
2022/03/20 02:22:45;;;;;;;51.67;30.17;;;1.10;99.90;;;;;;4953582;28;20058;-79
2022/03/20 02:25:33;;;;;;;51.50;30.48;;;1.10;1.00;;;;;;4954125;29;20083;-81
2022/03/20 02:28:20;;;;;;;51.15;30.75;;;1.10;1.00;;;;;;4953858;29;20047;-81
2022/03/20 02:31:10;;;;;;;54.70;30.73;;;1.10;99.90;;;;;;4953155;29;20051;-81
2022/03/20 02:34:01;;;;;;;48.22;28.95;;;1.20;1.00;;;;;;4953081;29;20066;-81
2022/03/20 02:36:48;;;;;;;50.42;30.77;;;1.30;1.00;;;;;;4950031;29;20414;-82
2022/03/20 02:39:36;;;;;;;50.88;30.73;;;1.40;89.80;;;;;;4952241;29;20043;-79
2022/03/20 02:42:24;;;;;;;49.15;28.65;;;1.50;1.00;;;;;;4954113;29;20153;-79
2022/03/20 02:45:14;;;;;;;53.13;29.58;;;1.50;99.90;;;;;;4946408;29;20532;-81
2022/03/20 02:48:04;;;;;;;49.20;28.33;;;1.50;99.90;;;;;;4954491;29;20087;-80
2022/03/20 02:50:51;;;;;;;45.80;27.63;;;1.60;1.00;;;;;;4955375;29;20186;-80
2022/03/20 02:53:38;;;;;;;42.70;25.73;;;1.60;95.00;;;;;;4956231;28;20051;-80
2022/03/20 02:56:27;;;;;;;44.55;26.50;;;1.60;99.90;;;;;;4943557;29;20051;-82
2022/03/20 02:59:22;;;;;;;38.20;24.80;;;1.60;1.00;;;;;;4939656;29;20520;-80
2022/03/20 03:02:09;;;;;;;45.63;28.02;;;1.60;99.90;;;;;;4942692;28;20069;-81
2022/03/20 03:05:00;;;;;;;48.17;27.05;;;1.50;99.90;;;;;;4954223;29;20059;-80
2022/03/20 03:10:57;;;;;;;51.47;29.95;;;1.60;99.90;;;;;;4954899;29;20055;-79
2022/03/20 03:13:47;;;;;;;52.30;30.27;;;1.60;99.90;;;;;;4953336;29;20047;-79
2022/03/20 03:16:37;;;;;;;48.15;29.13;;;1.60;35.90;;;;;;4939381;29;20117;-79
2022/03/20 03:19:26;;;;;;;51.08;29.70;;;1.60;99.90;;;;;;4939459;29;20102;-79
2022/03/20 03:22:18;;;;;;;48.63;30.48;;;1.50;99.90;;;;;;4945044;29;20054;-81
2022/03/20 03:25:06;;;;;;;54.58;31.70;;;1.50;99.90;;;;;;4955091;29;20118;-81
2022/03/20 03:27:54;;;;;;;52.25;30.70;;;1.50;99.90;;;;;;4954151;29;20047;-81
2022/03/20 03:30:44;;;;;;;47.60;27.95;;;1.40;99.90;;;;;;4955058;29;20078;-80
2022/03/20 03:33:31;;;;;;;49.55;29.17;;;1.40;99.90;;;;;;4955073;28;20043;-80
2022/03/20 03:36:18;;;;;;;47.05;28.75;;;1.30;99.90;;;;;;4955080;29;20087;-80
2022/03/20 03:39:07;;;;;;;45.65;29.48;;;1.30;99.90;;;;;;4953539;29;20039;-80
2022/03/20 03:41:54;;;;;;;44.47;28.92;;;1.30;1.00;;;;;;4955278;28;20084;-80
2022/03/20 03:44:41;;;;;;;47.05;27.65;;;1.30;99.90;;;;;;4953413;29;20093;-80
2022/03/20 03:47:28;;;;;;;43.83;27.70;;;1.30;1.00;;;;;;4953351;29;20058;-80
2022/03/20 03:50:16;;;;;;;44.38;28.05;;;1.30;99.90;;;;;;4950328;29;20517;-80
2022/03/20 03:53:04;;;;;;;47.25;28.27;;;1.30;1.00;;;;;;4954795;28;20653;-81
2022/03/20 03:55:53;;;;;;;47.33;28.80;;;1.20;1.00;;;;;;4948492;29;20154;-81
2022/03/20 03:58:40;;;;;;;46.42;28.63;;;1.10;99.90;;;;;;4946012;29;20414;-80
2022/03/20 04:01:27;;;;;;;52.45;29.35;;;1.00;1.00;;;;;;4951706;29;20051;-80
2022/03/20 04:04:15;;;;;;;50.65;28.75;;;1.00;1.00;;;;;;4957307;28;20175;-80
2022/03/20 04:07:04;;;;;;;54.75;30.40;;;0.90;1.00;;;;;;4954270;29;20074;-80
2022/03/20 04:09:53;;;;;;;53.90;31.23;;;0.90;99.90;;;;;;4944722;29;20126;-80
2022/03/20 04:12:43;;;;;;;52.67;31.75;;;0.90;99.90;;;;;;4950450;28;20062;-81
2022/03/20 04:15:31;;;;;;;50.08;30.40;;;1.00;1.00;;;;;;4955600;29;20047;-81
2022/03/20 04:18:20;;;;;;;55.88;30.30;;;1.10;1.00;;;;;;4938790;29;20075;-81
2022/03/20 04:21:10;;;;;;;50.85;31.58;;;1.10;1.00;;;;;;4954316;29;20051;-82
2022/03/20 04:23:58;;;;;;;51.10;31.02;;;1.20;99.90;;;;;;4951299;29;20066;-79
2022/03/20 04:26:46;;;;;;;49.78;29.50;;;1.30;99.90;;;;;;4952705;29;20417;-80
2022/03/20 04:29:33;;;;;;;52.00;30.75;;;1.50;99.90;;;;;;4949014;28;20051;-82
2022/03/20 04:32:21;;;;;;;46.33;26.70;;;1.60;99.90;;;;;;4956039;29;20066;-82
2022/03/20 04:35:08;;;;;;;46.80;26.33;;;1.70;99.90;;;;;;4955948;29;20049;-80
2022/03/20 04:37:56;;;;;;;43.55;25.63;;;1.90;99.90;;;;;;4956114;29;20047;-80
2022/03/20 04:40:43;;;;;;;43.00;25.17;;;2.00;1.00;;;;;;4941142;28;20114;-80
2022/03/20 04:43:31;;;;;;;43.22;26.27;;;2.20;99.90;;;;;;4950755;29;20051;-80
2022/03/20 04:46:19;;;;;;;50.10;26.95;;;2.30;99.90;;;;;;4935368;29;20497;-81
2022/03/20 04:58:35;;;;;;;53.65;29.20;;;2.50;99.90;;;;;;4944163;29;20451;-80
2022/03/20 05:01:24;;;;;;;49.92;27.48;;;2.50;99.90;;;;;;4955394;28;20130;-82
2022/03/20 05:04:15;;;;;;;48.63;27.27;;;2.50;99.90;;;;;;4954211;29;20051;-83
2022/03/20 05:07:06;;;;;;;47.53;26.67;;;2.60;99.90;;;;;;4947118;29;20126;-81
2022/03/20 05:13:41;;;;;;;50.00;29.58;;;2.70;71.00;;;;;;4942480;29;20059;-81
2022/03/20 05:16:11;;;;;;;48.90;27.08;;;2.70;99.90;;;;;;4957755;29;20052;-80
2022/03/20 05:19:02;;;;;;;47.58;27.48;;;2.70;1.00;;;;;;4949248;29;20043;-80
2022/03/20 05:21:49;;;;;;;44.60;27.08;;;2.70;70.10;;;;;;4944450;29;20103;-80
2022/03/20 05:24:38;;;;;;;49.90;28.58;;;2.70;36.40;;;;;;4955478;28;20158;-81
2022/03/20 05:27:25;;;;;;;46.88;26.45;;;2.60;99.90;;;;;;4963138;29;20040;-80
2022/03/20 05:30:13;;;;;;;45.58;27.92;;;2.60;99.90;;;;;;4963790;29;20047;-80
2022/03/20 05:33:00;;;;;;;50.38;29.15;;;2.60;99.90;;;;;;4959740;29;20051;-80
2022/03/20 05:35:47;;;;;;;48.35;28.73;;;2.50;99.90;;;;;;4969002;28;20055;-80
2022/03/20 05:38:38;;;;;;;46.10;27.25;;;2.50;99.90;;;;;;4960348;29;20047;-81
2022/03/20 05:41:46;;;;;;;47.95;26.98;;;2.60;99.90;;;;;;4955548;29;20126;-82
2022/03/20 05:44:35;;;;;;;46.28;27.05;;;2.60;99.90;;;;;;4954217;29;20040;-80
2022/03/20 05:47:22;;;;;;;46.97;27.98;;;2.60;99.90;;;;;;4968684;29;20058;-82
2022/03/20 05:50:12;;;;;;;46.72;28.80;;;2.60;99.90;;;;;;4966689;29;20075;-79
2022/03/20 05:52:59;;;;;;;49.90;28.38;;;2.60;99.90;;;;;;4968726;29;20047;-80
2022/03/20 05:58:58;;;;;;;47.38;27.55;;;2.60;99.90;;;;;;4976722;29;20085;-81
2022/03/20 06:01:46;;;;;;;48.08;28.35;;;2.70;99.90;;;;;;4976416;28;20090;-78
2022/03/20 06:04:33;;;;;;;49.20;27.17;;;2.70;97.90;;;;;;4957946;29;20142;-83
2022/03/20 06:07:21;;;;;;;48.05;28.30;;;2.70;66.60;;;;;;4958820;29;20043;-82
2022/03/20 06:10:10;;;;;;;49.40;28.75;;;2.80;84.30;;;;;;4974267;28;20172;-80
2022/03/20 06:12:59;;;;;;;48.63;28.70;;;2.70;99.90;;;;;;4984035;23;20078;-82
2022/03/20 06:15:47;;;;;;;49.88;29.15;;;2.70;99.90;;;;;;4942995;29;20052;-78
2022/03/20 06:18:37;;;;;;;46.45;28.80;;;2.80;99.90;;;;;;4948246;28;20104;-79
2022/03/20 06:21:27;;;;;;;47.05;28.17;;;2.80;99.90;;;;;;4962292;29;20109;-79
2022/03/20 06:24:24;;;;;;;50.72;30.30;;;2.80;99.90;;;;;;4972143;29;20103;-80
2022/03/20 06:27:14;;;;;;;50.88;29.20;;;2.90;99.90;;;;;;4974536;28;20039;-79
2022/03/20 06:30:02;;;;;;;49.67;29.02;;;2.90;99.90;;;;;;4978843;28;20027;-78
2022/03/20 06:32:50;;;;;;;50.75;30.35;;;2.90;1.00;;;;;;4972920;29;20142;-80
2022/03/20 06:35:37;;;;;;;48.40;28.45;;;2.90;1.00;;;;;;4957958;29;20043;-80
2022/03/20 06:38:25;;;;;;;52.65;30.08;;;3.00;32.90;;;;;;4974931;28;20110;-79
2022/03/20 06:41:18;;;;;;;43.72;28.33;;;3.00;1.00;;;;;;4977022;28;20145;-81
2022/03/20 06:44:05;;;;;;;54.20;30.67;;;3.20;1.00;;;;;;4952314;29;20039;-79
2022/03/20 06:46:54;;;;;;;52.10;30.85;;;3.50;99.90;;;;;;4970368;28;20357;-80
2022/03/20 06:49:43;;;;;;;51.13;30.05;;;3.70;99.90;;;;;;4961027;29;20047;-80
2022/03/20 06:52:31;;;;;;;52.90;29.05;;;3.90;68.90;;;;;;4946218;28;20059;-81
2022/03/20 06:55:19;;;;;;;49.22;29.67;;;4.10;71.50;;;;;;4957511;29;20106;-81
2022/03/20 06:58:06;;;;;;;48.00;28.88;;;4.30;1.00;;;;;;4952296;29;20061;-82
2022/03/20 07:00:57;;;;;;;48.25;27.67;;;4.40;1.00;;;;;;4956561;29;20067;-81
2022/03/20 07:03:44;;;;;;;47.28;28.52;;;4.70;1.00;;;;;;4955830;28;20473;-80
2022/03/20 07:06:32;;;;;;;48.22;29.20;;;4.90;99.90;;;;;;4964014;29;20039;-80
2022/03/20 07:09:25;;;;;;;46.97;28.92;;;5.00;99.90;;;;;;4967229;29;20102;-81
2022/03/20 07:12:13;;;;;;;45.05;28.33;;;5.10;99.90;;;;;;4975909;28;20047;-81
2022/03/20 07:15:00;;;;;;;45.33;28.25;;;5.30;99.90;;;;;;4966328;28;20051;-81
2022/03/20 07:17:48;;;;;;;49.83;29.35;;;5.60;99.90;;;;;;4970340;28;20078;-82
2022/03/20 07:20:37;;;;;;;45.30;28.48;;;5.70;23.70;;;;;;4966547;28;20078;-80
2022/03/20 07:23:24;;;;;;;47.28;29.08;;;5.90;7.40;;;;;;4964877;28;20143;-81
2022/03/20 07:29:30;;;;;;;43.95;28.65;;;6.40;1.00;;;;;;4960889;28;20043;-80
2022/03/20 07:33:04;;;;;;;47.05;27.83;;;6.40;1.00;;;;;;4950114;29;20039;-80
2022/03/20 07:40:10;;;;;;;46.65;28.30;;;6.70;1.00;;;;;;4947080;29;20027;-83
2022/03/20 07:42:59;;;;;;;47.17;28.60;;;7.00;1.00;;;;;;4958867;28;20098;-83
2022/03/20 07:45:50;;;;;;;46.97;28.58;;;7.10;1.00;;;;;;4954658;28;20052;-82
2022/03/20 07:49:08;;;;;;;42.78;27.83;;;7.30;1.00;;;;;;4940613;29;20086;-84
2022/03/20 07:52:00;;;;;;;45.60;29.50;;;7.70;99.90;;;;;;4948124;28;20127;-84
2022/03/20 07:54:50;;;;;;;48.25;29.25;;;8.10;99.90;;;;;;4953543;29;20430;-82
2022/03/20 07:57:44;;;;;;;45.72;29.40;;;8.00;99.90;;;;;;4947339;29;20047;-82
2022/03/20 08:00:44;;;;;;;45.50;28.13;;;8.30;99.90;;;;;;4952999;29;20062;-84
2022/03/20 08:08:03;;;;;;;46.72;28.95;;;8.10;99.90;;;;;;4949885;29;20030;-84
2022/03/20 08:18:46;;;;;;;40.97;26.92;;;8.90;99.90;;;;;;4967764;28;20128;-85
2022/03/20 08:22:05;;;;;;;;;;;;;;;;;;;;;
2022/03/20 08:25:39;;;;;;;44.15;28.08;;;10.00;99.90;;;;;;4949101;29;20084;-82
2022/03/20 08:28:38;;;;;;;39.10;27.10;;;10.60;99.90;;;;;;4942933;29;20440;-84
2022/03/20 08:31:27;;;;;;;43.38;27.02;;;10.90;99.90;;;;;;4945390;29;20087;-83
2022/03/20 08:34:25;;;;;;;36.10;25.05;;;11.40;99.90;;;;;;4959773;28;20145;-84
2022/03/20 08:37:17;;;;;;;41.83;27.00;;;11.90;99.90;;;;;;4970390;28;20497;-83
2022/03/20 08:44:36;;;;;;;35.75;24.25;;;13.60;92.20;;;;;;4948339;29;20040;-82
2022/03/20 08:48:05;;;;;;;37.42;23.77;;;13.80;46.90;;;;;;4943324;28;20051;-83
2022/03/20 08:50:55;;;;;;;36.42;24.48;;;13.30;25.50;;;;;;4952571;29;20047;-82
2022/03/20 08:53:53;;;;;;;36.13;25.70;;;12.20;15.40;;;;;;4949197;28;20091;-80
2022/03/20 08:56:40;;;;;;;39.92;25.23;;;11.70;23.80;;;;;;4942823;29;20544;-82
2022/03/20 08:59:31;;;;;;;36.50;24.95;;;11.00;15.60;;;;;;4934614;28;20070;-81
2022/03/20 09:02:18;;;;;;;37.50;24.23;;;10.80;18.50;;;;;;4939178;29;20357;-81
2022/03/20 09:05:06;;;;;;;38.58;24.45;;;10.50;17.70;;;;;;4952875;29;20058;-81
2022/03/20 09:12:10;;;;;;;35.45;23.77;;;10.30;22.20;;;;;;4949723;29;20027;-81
2022/03/20 09:15:17;;;;;;;33.65;22.77;;;11.00;24.80;;;;;;4955254;29;20058;-81
2022/03/20 09:21:10;;;;;;;35.53;23.35;;;11.30;7.10;;;;;;4950430;29;20055;-80
2022/03/20 09:28:29;;;;;;;35.30;23.30;;;10.70;15.00;;;;;;4887704;29;20083;-81
2022/03/20 09:31:16;;;;;;;35.50;23.98;;;10.50;13.70;;;;;;4954097;29;20062;-80
2022/03/20 09:34:04;;;;;;;39.13;24.50;;;10.20;21.20;;;;;;4953805;28;20499;-79
2022/03/20 09:41:30;;;;;;;;;;;;;;;;;;;;;
2022/03/20 09:44:41;;;;;;;39.92;24.17;;;10.20;28.60;;;;;;4941183;28;20047;-79
2022/03/20 09:47:47;;;;;;;38.45;25.10;;;10.00;30.70;;;;;;4941334;29;20067;-82
2022/03/20 10:02:53;;;;;;;40.58;25.45;;;11.30;43.00;;;;;;4949018;28;20050;-82
2022/03/20 10:06:09;;;;;;;39.90;25.17;;;12.50;43.30;;;;;;4947183;28;20151;-80
2022/03/20 10:09:00;;;;;;;42.42;25.77;;;12.40;23.70;;;;;;4949570;28;20056;-81
2022/03/20 10:11:55;;;;;;;36.33;25.15;;;11.90;23.80;;;;;;4939930;28;20062;-80
2022/03/20 10:14:46;;;;;;;37.22;24.15;;;12.10;24.20;;;;;;4951328;28;20113;-79
2022/03/20 10:18:08;;;;;;;38.38;25.42;;;12.20;20.20;;;;;;4948339;28;20048;-80
2022/03/20 10:20:58;;;;;;;40.42;25.65;;;12.20;22.60;;;;;;4951419;28;20110;-81
2022/03/20 10:24:30;;;;;;;;;;;;;;;;;;;;;
2022/03/20 10:28:00;;;;;;;38.95;23.40;;;12.20;24.70;;;;;;4951626;28;20031;-82
2022/03/20 10:31:10;;;;;;;39.75;24.98;;;12.60;18.30;;;;;;4951428;28;20058;-80
2022/03/20 10:34:25;;;;;;;40.33;23.80;;;12.80;22.80;;;;;;4950310;28;20162;-81
2022/03/20 10:41:40;;;;;;;39.15;23.23;;;12.70;22.10;;;;;;4944878;28;20048;-82
2022/03/20 10:45:07;;;;;;;35.00;22.38;;;12.80;22.00;;;;;;4954445;28;20198;-81
2022/03/20 10:48:11;;;;;;;36.45;21.73;;;13.20;21.40;;;;;;4955784;28;20058;-81
2022/03/20 11:04:08;;;;;;;25.65;16.92;;;17.10;1.00;;;;;;4871009;29;20439;-80
2022/03/20 11:07:00;;;;;;;26.65;15.13;;;17.80;1.00;;;;;;4938873;29;20051;-81
2022/03/20 11:09:54;;;;;;;26.50;15.50;;;17.50;1.00;;;;;;4949367;29;20119;-81
2022/03/20 11:12:44;;;;;;;22.88;15.25;;;18.00;1.00;;;;;;4952743;29;20469;-82
2022/03/20 11:15:33;;;;;;;25.35;15.25;;;18.30;1.00;;;;;;4967289;28;20125;-82
2022/03/20 11:19:19;;;;;;;23.35;15.07;;;19.10;1.00;;;;;;4954490;29;20095;-82
2022/03/20 11:26:32;;;;;;;20.48;13.02;;;20.30;99.90;;;;;;4863759;29;20113;-81
2022/03/20 11:29:40;;;;;;;19.13;10.25;;;20.50;5.50;;;;;;4861267;29;20045;-82
2022/03/20 11:32:48;;;;;;;18.90;9.43;;;20.50;1.00;;;;;;4865540;29;20135;-80
2022/03/20 11:35:38;;;;;;;13.10;8.52;;;21.10;1.00;;;;;;4869422;29;20067;-81
2022/03/20 11:42:51;;;;;;;15.80;8.68;;;20.00;1.00;;;;;;4835190;29;20077;-81
2022/03/20 11:45:39;;;;;;;11.52;7.43;;;20.90;1.00;;;;;;4829209;29;20062;-81
2022/03/20 11:48:26;;;;;;;18.50;8.60;;;20.10;1.00;;;;;;4834567;29;20046;-82
2022/03/20 11:55:47;;;;;;;15.43;8.38;;;18.90;1.00;;;;;;4950184;28;20035;-81
2022/03/20 11:58:59;;;;;;;14.45;8.63;;;18.70;1.00;;;;;;4953103;28;20062;-82
2022/03/20 12:02:15;;;;;;;14.90;8.15;;;18.50;1.00;;;;;;4952450;28;20066;-82
2022/03/20 12:05:36;;;;;;;17.60;8.45;;;17.90;1.00;;;;;;4952089;28;20083;-81
2022/03/20 12:08:36;;;;;;;16.80;7.65;;;17.60;1.00;;;;;;4935351;28;20073;-81
2022/03/20 12:11:42;;;;;;;17.00;7.70;;;17.20;1.00;;;;;;4950128;28;20039;-81
2022/03/20 12:14:53;;;;;;;14.20;7.45;;;16.90;1.00;;;;;;4957084;28;20047;-81
2022/03/20 12:18:01;;;;;;;13.95;8.63;;;17.40;1.00;;;;;;4953082;29;20043;-82
2022/03/20 12:20:51;;;;;;;24.65;9.85;;;18.00;1.00;;;;;;4940120;28;20168;-82
2022/03/20 12:23:43;;;;;;;18.30;9.32;;;18.30;1.00;;;;;;4949078;28;20054;-82
2022/03/20 12:26:44;;;;;;;16.90;10.57;;;17.80;1.00;;;;;;4949637;29;20413;-81
2022/03/20 12:29:36;;;;;;;23.70;10.13;;;16.90;1.00;;;;;;4943519;28;20040;-82
2022/03/20 12:32:59;;;;;;;19.15;10.85;;;16.90;1.00;;;;;;4950151;28;20043;-82
2022/03/20 12:35:47;;;;;;;22.30;11.77;;;17.50;1.00;;;;;;4947108;28;20067;-82
2022/03/20 12:38:44;;;;;;;20.52;11.20;;;19.20;1.00;;;;;;4944172;28;20126;-83
2022/03/20 12:41:31;;;;;;;15.00;9.85;;;20.10;1.00;;;;;;4941250;28;20051;-81
2022/03/20 12:44:19;;;;;;;22.33;10.63;;;20.80;1.00;;;;;;4959744;28;20043;-81
2022/03/20 12:47:21;;;;;;;17.33;10.65;;;21.70;1.00;;;;;;4963688;29;20520;-80
2022/03/20 12:50:10;;;;;;;21.65;11.52;;;22.80;1.00;;;;;;4963672;29;20048;-81
2022/03/20 12:53:14;;;;;;;20.40;10.63;;;23.60;1.00;;;;;;4939409;29;20046;-81
2022/03/20 12:59:35;;;;;;;15.90;9.63;;;24.70;1.00;;;;;;4983079;28;20034;-81
2022/03/20 13:02:32;;;;;;;17.17;10.38;;;24.40;1.00;;;;;;4978828;28;20110;-81
2022/03/20 13:05:21;;;;;;;18.40;10.10;;;23.80;1.00;;;;;;4985173;28;20035;-80
2022/03/20 13:08:11;;;;;;;17.25;10.48;;;25.50;1.00;;;;;;4972491;28;20047;-81
2022/03/20 13:14:26;;;;;;;15.10;9.32;;;24.70;1.00;;;;;;4966128;29;20052;-81
2022/03/20 13:17:25;;;;;;;20.35;9.55;;;25.60;1.00;;;;;;4958404;28;20310;-80
2022/03/20 13:20:20;;;;;;;11.68;8.10;;;25.30;1.00;;;;;;4966450;28;20044;-83
2022/03/20 13:23:08;;;;;;;16.02;9.20;;;26.00;1.00;;;;;;4958082;28;20154;-81
2022/03/20 13:26:00;;;;;;;19.50;9.63;;;26.50;1.00;;;;;;4941486;29;20408;-81
2022/03/20 13:28:49;;;;;;;15.50;9.68;;;24.10;1.00;;;;;;4953297;28;20214;-82
2022/03/20 13:31:39;;;;;;;19.55;9.02;;;22.50;1.00;;;;;;4951950;28;20050;-82
2022/03/20 13:34:29;;;;;;;16.83;9.45;;;22.50;1.00;;;;;;4955547;29;20058;-83
2022/03/20 13:37:35;;;;;;;14.02;8.93;;;23.20;1.00;;;;;;4951000;28;20091;-82
2022/03/20 13:40:27;;;;;;;15.57;9.07;;;24.80;1.00;;;;;;4954611;28;20121;-82
2022/03/20 13:43:22;;;;;;;13.18;9.65;;;25.50;1.00;;;;;;4945513;29;20054;-81
2022/03/20 13:46:19;;;;;;;14.50;9.30;;;25.00;1.00;;;;;;4956691;29;20051;-80
2022/03/20 13:49:10;;;;;;;21.38;10.60;;;24.20;1.00;;;;;;4952846;28;20062;-82
2022/03/20 13:51:58;;;;;;;16.63;10.20;;;24.50;1.00;;;;;;4953140;28;20067;-81
2022/03/20 13:55:06;;;;;;;16.13;11.27;;;24.60;1.00;;;;;;4955987;28;20047;-83
2022/03/20 13:58:00;;;;;;;15.45;10.35;;;25.00;1.00;;;;;;4934421;29;20055;-82
2022/03/20 14:00:57;;;;;;;18.27;11.25;;;25.30;1.00;;;;;;4949774;29;20152;-82
2022/03/20 14:03:46;;;;;;;21.55;12.68;;;25.20;1.00;;;;;;4933359;29;20123;-82
2022/03/20 14:06:38;;;;;;;19.15;11.98;;;23.00;1.00;;;;;;4941462;29;20088;-83
2022/03/20 14:09:37;;;;;;;26.55;12.32;;;22.50;1.00;;;;;;4929756;29;20471;-83
2022/03/20 14:12:32;;;;;;;16.85;12.20;;;21.90;1.00;;;;;;4946302;28;20055;-83
2022/03/20 14:15:25;;;;;;;18.70;12.10;;;21.40;1.00;;;;;;4951027;29;20043;-83
2022/03/20 14:18:16;;;;;;;23.05;12.55;;;22.30;1.00;;;;;;4950909;29;20066;-81
2022/03/20 14:21:21;;;;;;;20.17;12.32;;;22.30;1.00;;;;;;4951606;29;20047;-82
2022/03/20 14:24:12;;;;;;;19.73;13.05;;;23.30;1.00;;;;;;4941373;28;21314;-83
2022/03/20 14:26:59;;;;;;;23.67;12.57;;;22.80;1.00;;;;;;4955387;28;20052;-82
2022/03/20 14:39:30;;;;;;;23.42;15.05;;;22.00;1.00;;;;;;4953204;29;20050;-83
2022/03/20 14:42:31;;;;;;;26.92;15.63;;;21.50;1.00;;;;;;4955933;29;20055;-83
2022/03/20 14:45:23;;;;;;;26.85;15.68;;;21.50;1.00;;;;;;4953680;29;20050;-84
2022/03/20 14:48:12;;;;;;;21.85;15.80;;;21.40;1.00;;;;;;4935431;29;20051;-82
2022/03/20 14:51:00;;;;;;;24.00;17.58;;;21.10;1.00;;;;;;4946128;29;20051;-84
2022/03/20 14:53:49;;;;;;;28.90;17.92;;;20.60;1.00;;;;;;4947963;29;20047;-84
2022/03/20 14:56:40;;;;;;;32.78;19.48;;;19.80;1.00;;;;;;4949925;29;20052;-83
2022/03/20 14:59:27;;;;;;;27.45;18.67;;;19.80;1.00;;;;;;4942141;29;20333;-81
2022/03/20 15:02:15;;;;;;;27.30;18.50;;;20.10;1.00;;;;;;4945465;29;20732;-83
2022/03/20 15:05:03;;;;;;;29.80;19.30;;;20.20;1.00;;;;;;4938865;29;20082;-83
2022/03/20 15:14:12;;;;;;;26.08;19.35;;;19.90;1.00;;;;;;4951660;29;20121;-82
2022/03/20 15:17:00;;;;;;;30.25;18.35;;;20.50;1.00;;;;;;4955470;29;20070;-82
2022/03/20 15:19:49;;;;;;;29.98;19.05;;;20.70;1.00;;;;;;4948842;29;20054;-83
2022/03/20 15:22:36;;;;;;;31.05;19.17;;;20.70;1.00;;;;;;4936467;29;20052;-81
2022/03/20 15:25:32;;;;;;;32.10;19.55;;;20.30;1.00;;;;;;4948229;29;20054;-82
2022/03/20 15:28:22;;;;;;;25.95;19.02;;;20.30;1.00;;;;;;4953805;29;20447;-83
2022/03/20 15:31:11;;;;;;;29.00;20.40;;;20.20;1.00;;;;;;4937729;29;20055;-80
2022/03/20 15:34:02;;;;;;;32.97;21.27;;;20.20;1.00;;;;;;4957817;28;20047;-83
2022/03/20 15:36:51;;;;;;;29.58;21.52;;;19.20;1.00;;;;;;4948768;29;20082;-83
2022/03/20 15:39:40;;;;;;;30.67;21.15;;;18.70;1.00;;;;;;4953221;29;20174;-83
2022/03/20 15:42:27;;;;;;;40.63;23.20;;;18.60;1.00;;;;;;4952828;29;20103;-82
2022/03/20 15:45:15;;;;;;;34.20;22.58;;;18.30;1.00;;;;;;4939250;29;20062;-83
2022/03/20 15:48:04;;;;;;;33.72;22.35;;;17.80;1.00;;;;;;4949034;29;20043;-82
2022/03/20 15:50:52;;;;;;;30.45;21.35;;;17.40;1.00;;;;;;4960230;28;20070;-81
2022/03/20 15:53:39;;;;;;;33.17;21.52;;;17.30;1.00;;;;;;4954830;29;20123;-83
2022/03/20 15:56:29;;;;;;;35.53;22.02;;;17.50;1.00;;;;;;4952429;29;20129;-83
2022/03/20 15:59:18;;;;;;;36.90;22.25;;;17.20;1.00;;;;;;4941491;29;20062;-82
2022/03/20 16:02:06;;;;;;;34.22;22.48;;;17.10;1.00;;;;;;4952953;29;20059;-82
2022/03/20 16:04:54;;;;;;;32.60;21.30;;;16.50;1.00;;;;;;4953794;29;20058;-81
2022/03/20 16:07:44;;;;;;;33.33;21.67;;;16.40;1.00;;;;;;4954904;29;20515;-82
2022/03/20 16:10:35;;;;;;;33.20;21.55;;;16.10;1.00;;;;;;4954327;29;20568;-83
2022/03/20 16:13:23;;;;;;;33.20;21.55;;;15.90;1.00;;;;;;4952393;29;20138;-81
2022/03/20 16:16:29;;;;;;;34.47;20.75;;;16.00;1.00;;;;;;4955047;29;20075;-82
2022/03/20 16:19:46;;;;;;;31.48;21.08;;;15.70;1.00;;;;;;4957439;28;20094;-81
2022/03/20 16:29:48;;;;;;;32.03;20.33;;;15.20;1.00;;;;;;4945502;29;20263;-82
2022/03/20 16:32:47;;;;;;;31.65;20.02;;;15.10;1.00;;;;;;4943731;29;20079;-81
2022/03/20 16:35:35;;;;;;;32.50;19.73;;;14.60;1.00;;;;;;4954104;29;20043;-81
2022/03/20 16:38:23;;;;;;;29.90;18.88;;;14.30;1.00;;;;;;4939307;29;20107;-81
2022/03/20 16:41:18;;;;;;;29.80;19.42;;;14.10;1.00;;;;;;4958966;28;20058;-82
2022/03/20 16:44:09;;;;;;;35.17;18.95;;;13.80;1.00;;;;;;4952148;29;20186;-82
2022/03/20 16:47:08;;;;;;;33.15;18.25;;;13.60;1.00;;;;;;4937763;28;20111;-81
2022/03/20 16:49:56;;;;;;;29.70;18.58;;;13.40;1.00;;;;;;4928728;29;20107;-81
2022/03/20 16:52:46;;;;;;;28.38;17.70;;;13.30;1.00;;;;;;4958873;29;20039;-81
2022/03/20 16:55:37;;;;;;;32.05;19.45;;;13.20;1.00;;;;;;4957361;29;20189;-80
2022/03/20 16:58:31;;;;;;;32.47;17.73;;;13.00;1.00;;;;;;4940486;29;20048;-81
2022/03/20 17:01:19;;;;;;;29.77;17.90;;;13.00;1.00;;;;;;4933290;29;20078;-81
2022/03/20 17:04:09;;;;;;;31.25;17.48;;;12.80;1.00;;;;;;4966678;28;20377;-81
2022/03/20 17:07:08;;;;;;;31.83;18.20;;;12.70;1.00;;;;;;4929764;29;20071;-82
2022/03/20 17:09:56;;;;;;;29.98;17.13;;;12.60;1.00;;;;;;4955369;29;20039;-82